createdAt,value
2023-01-30T00:01:12.911Z,39.60
2023-01-30T00:03:40.619Z,39.53
2023-01-30T00:06:08.651Z,36.10
2023-01-30T00:08:36.290Z,36.83
2023-01-30T00:11:06.629Z,39.57
2023-01-30T00:13:34.499Z,39.90
2023-01-30T00:16:02.250Z,38.27
2023-01-30T00:18:29.999Z,39.17
2023-01-30T00:20:58.033Z,41.13
2023-01-30T00:23:26.646Z,38.10
2023-01-30T00:25:54.628Z,37.83
2023-01-30T00:28:23.776Z,41.20
2023-01-30T00:30:51.961Z,39.47
2023-01-30T00:33:20.592Z,42.83
2023-01-30T00:35:49.340Z,43.73
2023-01-30T00:38:17.164Z,42.37
2023-01-30T00:40:45.053Z,43.73
2023-01-30T00:43:31.090Z,43.07
2023-01-30T00:46:18.244Z,42.43
2023-01-30T00:48:46.044Z,45.07
2023-01-30T00:51:13.839Z,43.23
2023-01-30T00:53:41.603Z,45.50
2023-01-30T00:56:09.287Z,41.10
2023-01-30T00:58:36.991Z,44.00
2023-01-30T01:01:06.127Z,47.30
2023-01-30T01:03:33.933Z,46.23
2023-01-30T01:06:01.788Z,45.80
2023-01-30T01:08:29.434Z,46.20
2023-01-30T01:10:57.101Z,44.03
2023-01-30T01:13:24.775Z,45.27
2023-01-30T01:15:52.454Z,46.30
2023-01-30T01:18:21.458Z,45.93
2023-01-30T01:20:49.132Z,47.17
2023-01-30T01:23:17.135Z,43.97
2023-01-30T01:25:44.919Z,49.13
2023-01-30T01:28:12.661Z,46.43
2023-01-30T01:30:40.349Z,49.43
2023-01-30T01:33:07.996Z,46.97
2023-01-30T01:35:41.563Z,46.60
2023-01-30T01:38:09.229Z,41.40
2023-01-30T01:40:54.544Z,48.87
2023-01-30T01:43:23.934Z,48.27
2023-01-30T01:45:54.709Z,48.13
2023-01-30T01:48:26.834Z,46.93
2023-01-30T01:50:59.303Z,48.90
2023-01-30T01:53:30.135Z,45.00
2023-01-30T01:55:59.690Z,44.50
2023-01-30T01:58:30.827Z,45.53
2023-01-30T02:01:00.227Z,45.83
2023-01-30T02:03:30.558Z,49.93
2023-01-30T02:06:02.627Z,48.50
2023-01-30T02:08:33.028Z,47.63
2023-01-30T02:11:06.372Z,44.77
2023-01-30T02:13:34.439Z,52.30
2023-01-30T02:16:03.411Z,54.33
2023-01-30T02:18:32.367Z,50.13
2023-01-30T02:21:28.946Z,49.67
2023-01-30T02:24:16.108Z,49.53
2023-01-30T02:26:52.699Z,50.90
2023-01-30T02:29:46.586Z,50.97
2023-01-30T02:32:20.566Z,52.80
2023-01-30T02:34:53.933Z,48.83
2023-01-30T02:37:29.690Z,48.17
2023-01-30T02:40:11.978Z,54.77
2023-01-30T02:42:43.675Z,48.90
2023-01-30T02:45:13.699Z,52.80
2023-01-30T02:47:46.765Z,51.37
2023-01-30T02:50:17.855Z,50.70
2023-01-30T02:52:45.791Z,50.87
2023-01-30T02:55:20.422Z,50.70
2023-01-30T02:57:48.227Z,52.93
2023-01-30T03:00:18.996Z,49.53
2023-01-30T03:03:10.323Z,45.97
2023-01-30T03:05:55.690Z,46.87
2023-01-30T03:08:28.630Z,44.10
2023-01-30T03:11:00.361Z,44.80
2023-01-30T03:13:35.378Z,42.20
2023-01-30T03:16:06.621Z,42.10
2023-01-30T03:18:35.748Z,42.17
2023-01-30T03:21:07.119Z,37.87
2023-01-30T03:23:34.849Z,36.37
2023-01-30T03:26:04.679Z,36.90
2023-01-30T03:28:32.683Z,33.13
2023-01-30T03:31:00.580Z,28.83
2023-01-30T03:33:28.391Z,29.70
2023-01-30T03:35:57.524Z,25.43
2023-01-30T03:38:25.216Z,23.23
2023-01-30T03:40:52.901Z,22.83
2023-01-30T03:43:20.644Z,20.20
2023-01-30T03:45:48.406Z,17.23
2023-01-30T03:48:16.080Z,15.27
2023-01-30T03:50:44.530Z,14.67
2023-01-30T03:53:13.554Z,13.37
2023-01-30T03:55:41.362Z,11.40
2023-01-30T03:58:09.060Z,11.20
2023-01-30T04:00:36.802Z,10.90
2023-01-30T04:03:04.631Z,11.30
2023-01-30T04:05:32.369Z,11.33
2023-01-30T04:08:00.502Z,10.93
2023-01-30T04:10:29.613Z,11.43
2023-01-30T04:12:57.383Z,10.67
2023-01-30T04:15:25.012Z,11.10
2023-01-30T04:17:52.671Z,11.27
2023-01-30T04:20:20.923Z,10.53
2023-01-30T04:22:48.606Z,10.50
2023-01-30T04:25:16.983Z,11.67
2023-01-30T04:27:46.227Z,9.57
2023-01-30T04:30:14.020Z,9.90
2023-01-30T04:32:41.671Z,8.83
2023-01-30T04:35:09.946Z,10.40
2023-01-30T04:37:37.596Z,9.67
2023-01-30T04:40:06.449Z,9.33
2023-01-30T04:42:34.139Z,8.03
2023-01-30T04:45:03.239Z,7.93
2023-01-30T04:47:30.934Z,8.67
2023-01-30T04:49:58.642Z,9.07
2023-01-30T04:52:26.379Z,11.23
2023-01-30T04:54:54.014Z,8.17
2023-01-30T04:57:21.673Z,8.83
2023-01-30T04:59:49.350Z,8.37
2023-01-30T05:02:18.489Z,6.90
2023-01-30T05:04:46.218Z,6.80
2023-01-30T05:07:13.919Z,7.37
2023-01-30T05:09:41.589Z,7.27
2023-01-30T05:12:09.259Z,7.63
2023-01-30T05:14:36.914Z,8.87
2023-01-30T05:17:04.759Z,6.73
2023-01-30T05:19:33.870Z,7.10
2023-01-30T05:22:01.613Z,7.10
2023-01-30T05:24:29.277Z,7.20
2023-01-30T05:26:56.959Z,6.00
2023-01-30T05:29:24.663Z,6.37
2023-01-30T05:31:52.430Z,5.30
2023-01-30T05:34:20.136Z,6.43
2023-01-30T05:36:49.167Z,5.23
2023-01-30T05:39:17.228Z,5.50
2023-01-30T05:41:45.012Z,6.00
2023-01-30T05:44:12.772Z,6.37
2023-01-30T05:46:40.681Z,5.67
2023-01-30T05:49:08.477Z,5.23
2023-01-30T05:51:36.164Z,5.10
2023-01-30T05:54:05.365Z,5.20
2023-01-30T05:56:33.441Z,4.67
2023-01-30T05:59:02.564Z,4.20
2023-01-30T06:01:30.882Z,5.97
2023-01-30T06:03:59.378Z,5.33
2023-01-30T06:06:27.070Z,4.60
2023-01-30T06:08:55.370Z,5.93
2023-01-30T06:11:24.624Z,5.17
2023-01-30T06:13:52.629Z,5.97
2023-01-30T06:16:21.123Z,5.10
2023-01-30T06:18:48.816Z,5.40
2023-01-30T06:21:17.406Z,4.63
2023-01-30T06:23:46.247Z,6.53
2023-01-30T06:26:14.496Z,4.83
2023-01-30T06:28:44.321Z,4.97
2023-01-30T06:31:12.224Z,5.73
2023-01-30T06:33:39.958Z,4.87
2023-01-30T06:36:08.543Z,4.80
2023-01-30T06:38:36.598Z,6.07
2023-01-30T06:41:04.300Z,5.43
2023-01-30T06:43:31.980Z,7.43
2023-01-30T06:46:01.332Z,6.77
2023-01-30T06:48:29.113Z,6.63
2023-01-30T06:50:56.785Z,5.37
2023-01-30T06:53:30.231Z,5.53
2023-01-30T06:55:58.133Z,5.00
2023-01-30T06:58:25.863Z,6.47
2023-01-30T07:00:53.618Z,4.63
2023-01-30T07:03:22.699Z,6.13
2023-01-30T07:05:50.491Z,5.07
2023-01-30T07:08:18.270Z,5.43
2023-01-30T07:10:46.674Z,5.17
2023-01-30T07:13:14.458Z,5.87
2023-01-30T07:15:42.139Z,6.33
2023-01-30T07:18:09.854Z,6.07
2023-01-30T07:20:38.877Z,4.53
2023-01-30T07:23:06.583Z,5.97
2023-01-30T07:25:34.302Z,4.50
2023-01-30T07:28:02.775Z,6.27
2023-01-30T07:30:32.661Z,4.80
2023-01-30T07:33:01.389Z,4.63
2023-01-30T07:35:30.981Z,5.77
2023-01-30T07:38:00.126Z,4.90
2023-01-30T07:40:27.848Z,5.23
2023-01-30T07:42:59.507Z,5.10
2023-01-30T07:45:28.407Z,4.83
2023-01-30T07:47:56.123Z,7.40
2023-01-30T07:50:23.814Z,5.33
2023-01-30T07:52:51.535Z,4.80
2023-01-30T07:55:20.768Z,6.93
2023-01-30T07:57:48.646Z,6.57
2023-01-30T08:00:17.307Z,5.87
2023-01-30T08:02:45.255Z,6.37
2023-01-30T08:05:12.965Z,5.63
2023-01-30T08:07:41.033Z,5.83
2023-01-30T08:10:12.008Z,5.53
2023-01-30T08:12:42.225Z,4.60
2023-01-30T08:15:10.684Z,4.77
2023-01-30T08:17:38.664Z,4.93
2023-01-30T08:20:07.545Z,5.50
2023-01-30T08:22:35.473Z,4.93
2023-01-30T08:25:03.177Z,5.47
2023-01-30T08:27:30.833Z,6.23
2023-01-30T08:29:59.872Z,6.10
2023-01-30T08:32:27.577Z,6.10
2023-01-30T08:34:55.306Z,6.53
2023-01-30T08:37:22.972Z,5.27
2023-01-30T08:39:50.695Z,6.00
2023-01-30T08:42:18.411Z,5.43
2023-01-30T08:44:46.078Z,6.33
2023-01-30T08:47:15.134Z,4.80
2023-01-30T08:49:42.817Z,5.40
2023-01-30T08:52:11.563Z,5.73
2023-01-30T08:54:39.258Z,6.27
2023-01-30T08:57:06.922Z,4.10
2023-01-30T08:59:34.598Z,5.97
2023-01-30T09:02:02.280Z,6.87
2023-01-30T09:04:31.995Z,4.20
2023-01-30T09:06:59.664Z,6.63
2023-01-30T09:09:27.347Z,5.63
2023-01-30T09:11:55.042Z,6.03
2023-01-30T09:14:23.158Z,5.17
2023-01-30T09:16:55.658Z,6.10
2023-01-30T09:19:23.999Z,5.60
2023-01-30T09:21:53.497Z,6.17
2023-01-30T09:24:21.988Z,6.67
2023-01-30T09:26:49.723Z,5.40
2023-01-30T09:29:17.542Z,5.20
2023-01-30T09:31:45.312Z,5.27
2023-01-30T09:34:13.355Z,6.23
2023-01-30T09:36:41.092Z,5.40
2023-01-30T09:39:10.368Z,5.40
2023-01-30T09:41:52.458Z,6.30
2023-01-30T09:44:40.710Z,4.10
2023-01-30T09:47:12.277Z,5.70
2023-01-30T09:49:46.775Z,4.30
2023-01-30T09:52:24.350Z,5.17
2023-01-30T09:54:56.881Z,5.33
2023-01-30T09:57:25.978Z,4.90
2023-01-30T09:59:57.574Z,5.03
2023-01-30T10:02:40.954Z,4.47
2023-01-30T10:05:08.933Z,5.00
2023-01-30T10:07:52.243Z,6.63
2023-01-30T10:10:35.786Z,4.77
2023-01-30T10:13:10.594Z,6.13
2023-01-30T10:15:50.259Z,4.13
2023-01-30T10:18:43.915Z,5.13
2023-01-30T10:21:18.476Z,6.93
2023-01-30T10:24:04.185Z,6.00
2023-01-30T10:26:33.492Z,5.93
2023-01-30T10:29:07.754Z,7.03
2023-01-30T10:31:41.079Z,5.87
2023-01-30T10:34:13.279Z,4.70
2023-01-30T10:36:43.913Z,6.17
2023-01-30T10:39:22.049Z,5.57
2023-01-30T10:41:55.895Z,6.07
2023-01-30T10:44:24.607Z,6.47
2023-01-30T10:47:29.814Z,5.60
2023-01-30T10:50:14.566Z,6.63
2023-01-30T10:52:47.223Z,4.80
2023-01-30T10:55:36.036Z,7.43
2023-01-30T10:58:14.646Z,7.40
2023-01-30T11:00:44.414Z,6.90
2023-01-30T11:03:29.580Z,5.80
2023-01-30T11:05:59.897Z,6.07
2023-01-30T11:08:28.844Z,5.57
2023-01-30T11:10:57.677Z,5.17
2023-01-30T11:13:30.559Z,5.77
2023-01-30T11:16:00.293Z,6.43
2023-01-30T11:19:17.220Z,5.90
2023-01-30T11:21:23.457Z,5.53
2023-01-30T11:23:52.886Z,6.80
2023-01-30T11:26:26.076Z,4.97
2023-01-30T11:29:00.211Z,6.10
2023-01-30T11:31:40.937Z,7.23
2023-01-30T11:34:14.612Z,5.20
2023-01-30T11:36:42.409Z,6.90
2023-01-30T11:39:23.130Z,7.23
2023-01-30T11:42:04.551Z,6.33
2023-01-30T11:44:35.203Z,6.70
2023-01-30T11:47:05.477Z,5.57
2023-01-30T11:49:47.092Z,6.00
2023-01-30T11:52:29.717Z,6.80
2023-01-30T11:55:01.236Z,6.47
2023-01-30T11:57:28.904Z,6.43
2023-01-30T11:59:59.213Z,6.53
2023-01-30T12:02:31.583Z,8.17
2023-01-30T12:05:01.920Z,6.90
2023-01-30T12:07:30.784Z,7.50
2023-01-30T12:09:59.721Z,6.50
2023-01-30T12:12:33.510Z,5.37
2023-01-30T12:15:19.849Z,4.60
2023-01-30T12:17:51.887Z,6.57
2023-01-30T12:20:26.373Z,4.70
2023-01-30T12:23:04.289Z,5.50
2023-01-30T12:25:36.524Z,6.30
2023-01-30T12:28:09.036Z,5.97
2023-01-30T12:30:41.101Z,5.13
2023-01-30T12:33:15.705Z,7.40
2023-01-30T12:36:00.203Z,5.93
2023-01-30T12:38:44.423Z,4.07
2023-01-30T12:41:24.212Z,3.50
2023-01-30T12:44:01.804Z,2.27
2023-01-30T12:46:49.938Z,3.83
2023-01-30T12:49:30.629Z,3.23
2023-01-30T12:52:10.130Z,2.50
2023-01-30T12:54:46.578Z,4.53
2023-01-30T12:57:21.340Z,4.20
2023-01-30T12:59:56.754Z,5.47
2023-01-30T13:02:55.976Z,5.47
2023-01-30T13:05:34.279Z,6.03
2023-01-30T13:08:09.597Z,5.73
2023-01-30T13:10:40.999Z,4.63
2023-01-30T13:13:15.734Z,4.40
2023-01-30T13:15:47.885Z,3.97
2023-01-30T13:18:20.114Z,2.07
2023-01-30T13:20:55.920Z,2.90
2023-01-30T13:23:28.774Z,3.07
2023-01-30T13:26:01.089Z,3.60
2023-01-30T13:28:33.011Z,3.93
2023-01-30T13:31:01.572Z,4.83
2023-01-30T13:33:33.513Z,2.87
2023-01-30T13:36:06.942Z,4.03
2023-01-30T13:38:36.191Z,3.40
2023-01-30T13:41:05.121Z,3.40
2023-01-30T13:43:36.474Z,3.13
2023-01-30T13:46:08.407Z,4.87
2023-01-30T13:48:46.691Z,6.57
2023-01-30T13:51:28.825Z,3.10
2023-01-30T13:54:01.833Z,3.83
2023-01-30T13:56:42.993Z,3.70
2023-01-30T13:59:18.807Z,3.73
2023-01-30T14:02:24.868Z,5.57
2023-01-30T14:04:55.584Z,4.67
2023-01-30T14:07:26.414Z,5.73
2023-01-30T14:10:05.960Z,4.87
2023-01-30T14:12:36.813Z,5.17
2023-01-30T14:15:12.558Z,7.63
2023-01-30T14:17:40.522Z,5.63
2023-01-30T14:20:16.742Z,5.57
2023-01-30T14:22:52.385Z,5.90
2023-01-30T14:25:44.174Z,6.93
2023-01-30T14:28:48.367Z,6.67
2023-01-30T14:31:51.932Z,5.27
2023-01-30T14:35:10.367Z,6.47
2023-01-30T14:37:50.241Z,6.70
2023-01-30T14:40:47.202Z,8.77
2023-01-30T14:43:53.410Z,9.50
2023-01-30T14:46:41.053Z,5.97
2023-01-30T14:49:20.955Z,4.40
2023-01-30T14:51:48.959Z,6.70
2023-01-30T14:54:30.270Z,5.17
2023-01-30T14:57:02.639Z,7.50
2023-01-30T14:59:33.133Z,7.13
2023-01-30T15:02:22.803Z,7.57
2023-01-30T15:05:05.252Z,4.83
2023-01-30T15:07:39.087Z,6.37
2023-01-30T15:10:18.373Z,6.50
2023-01-30T15:13:00.240Z,7.50
2023-01-30T15:15:32.898Z,5.53
2023-01-30T15:18:25.807Z,6.20
2023-01-30T15:21:07.443Z,8.53
2023-01-30T15:23:56.413Z,5.23
2023-01-30T15:26:34.112Z,6.87
2023-01-30T15:29:19.578Z,5.17
2023-01-30T15:31:55.302Z,6.20
2023-01-30T15:34:23.865Z,5.90
2023-01-30T15:36:51.671Z,5.30
2023-01-30T15:39:21.124Z,5.33
2023-01-30T15:41:52.539Z,5.47
2023-01-30T15:44:38.374Z,4.50
2023-01-30T15:47:18.257Z,6.47
2023-01-30T15:49:55.700Z,7.63
2023-01-30T15:52:28.829Z,4.37
2023-01-30T15:55:02.190Z,5.67
2023-01-30T15:57:34.137Z,5.47
2023-01-30T16:00:02.239Z,4.80
2023-01-30T16:02:32.747Z,8.07
2023-01-30T16:05:24.194Z,5.43
2023-01-30T16:07:54.854Z,6.63
2023-01-30T16:10:24.659Z,4.90
2023-01-30T16:12:56.225Z,7.17
2023-01-30T16:15:28.780Z,5.03
2023-01-30T16:18:02.307Z,6.53
2023-01-30T16:20:31.037Z,5.30
2023-01-30T16:22:58.952Z,4.73
2023-01-30T16:25:29.827Z,8.10
2023-01-30T16:27:58.880Z,6.70
2023-01-30T16:30:28.204Z,6.27
2023-01-30T16:32:57.070Z,6.13
2023-01-30T16:35:44.217Z,8.23
2023-01-30T16:38:32.357Z,6.77
2023-01-30T16:41:01.035Z,6.70
2023-01-30T16:43:31.669Z,6.33
2023-01-30T16:46:46.348Z,5.33
2023-01-30T16:49:17.648Z,6.20
2023-01-30T16:51:45.460Z,6.80
2023-01-30T16:54:20.298Z,8.03
2023-01-30T16:56:49.498Z,8.07
2023-01-30T16:59:21.579Z,6.63
2023-01-30T17:01:49.722Z,8.47
2023-01-30T17:04:21.323Z,6.57
2023-01-30T17:06:54.675Z,8.57
2023-01-30T17:09:41.677Z,7.23
2023-01-30T17:12:48.920Z,7.10
2023-01-30T17:15:39.551Z,6.90
2023-01-30T17:18:09.539Z,7.30
2023-01-30T17:20:45.424Z,7.33
2023-01-30T17:23:17.802Z,4.30
2023-01-30T17:25:47.189Z,7.53
2023-01-30T17:28:21.112Z,4.17
2023-01-30T17:30:51.075Z,7.77
2023-01-30T17:33:18.816Z,6.43
2023-01-30T17:35:46.737Z,6.70
2023-01-30T17:38:14.407Z,7.40
2023-01-30T17:40:42.863Z,7.90
2023-01-30T17:43:12.966Z,7.27
2023-01-30T17:45:40.678Z,6.97
2023-01-30T17:48:10.798Z,7.17
2023-01-30T17:50:38.464Z,7.67
2023-01-30T17:53:06.658Z,7.50
2023-01-30T17:55:35.181Z,8.73
2023-01-30T17:58:02.923Z,7.13
2023-01-30T18:00:30.676Z,6.50
2023-01-30T18:02:58.750Z,4.97
2023-01-30T18:05:27.908Z,6.23
2023-01-30T18:07:55.597Z,6.63
2023-01-30T18:10:23.333Z,6.90
2023-01-30T18:12:51.015Z,7.23
2023-01-30T18:15:19.142Z,6.30
2023-01-30T18:17:48.505Z,6.10
2023-01-30T18:20:18.031Z,6.53
2023-01-30T18:22:47.569Z,6.90
2023-01-30T18:25:15.814Z,7.50
2023-01-30T18:27:44.879Z,6.57
2023-01-30T18:30:16.621Z,6.10
2023-01-30T18:32:52.568Z,7.17
2023-01-30T18:35:20.896Z,6.23
2023-01-30T18:37:50.866Z,6.30
2023-01-30T18:40:19.594Z,8.60
2023-01-30T18:42:47.435Z,7.40
2023-01-30T18:45:15.313Z,7.87
2023-01-30T18:47:43.028Z,6.23
2023-01-30T18:50:11.739Z,7.30
2023-01-30T18:52:39.478Z,8.30
2023-01-30T18:55:09.400Z,5.97
2023-01-30T18:57:37.134Z,7.83
2023-01-30T19:00:05.635Z,6.43
2023-01-30T19:02:33.373Z,5.97
2023-01-30T19:05:01.104Z,7.23
2023-01-30T19:07:28.837Z,7.97
2023-01-30T19:09:56.679Z,7.60
2023-01-30T19:12:43.601Z,6.07
2023-01-30T19:15:11.606Z,7.97
2023-01-30T19:17:39.292Z,6.13
2023-01-30T19:20:11.057Z,6.67
2023-01-30T19:22:39.072Z,6.63
2023-01-30T19:25:08.412Z,5.83
2023-01-30T19:27:38.924Z,5.00
2023-01-30T19:30:08.070Z,5.90
2023-01-30T19:32:36.042Z,5.57
2023-01-30T19:35:04.022Z,6.77
2023-01-30T19:37:31.694Z,6.67
2023-01-30T19:39:59.407Z,5.90
2023-01-30T19:42:27.153Z,6.67
2023-01-30T19:44:56.456Z,5.70
2023-01-30T19:47:24.145Z,6.87
2023-01-30T19:49:51.872Z,5.20
2023-01-30T19:52:19.523Z,6.60
2023-01-30T19:54:47.863Z,4.90
2023-01-30T19:57:15.554Z,5.33
2023-01-30T19:59:44.883Z,5.20
2023-01-30T20:02:14.854Z,6.67
2023-01-30T20:04:42.567Z,6.03
2023-01-30T20:07:10.326Z,4.27
2023-01-30T20:09:38.030Z,5.10
2023-01-30T20:12:06.030Z,5.30
2023-01-30T20:14:33.678Z,4.53
2023-01-30T20:17:01.543Z,5.77
2023-01-30T20:19:30.695Z,4.77
2023-01-30T20:21:58.589Z,5.40
2023-01-30T20:24:26.256Z,5.53
2023-01-30T20:26:54.008Z,4.60
2023-01-30T20:29:21.722Z,5.67
2023-01-30T20:31:49.526Z,4.27
2023-01-30T20:34:18.125Z,4.03
2023-01-30T20:36:47.689Z,5.00
2023-01-30T20:39:16.964Z,4.97
2023-01-30T20:41:44.707Z,5.67
2023-01-30T20:44:14.042Z,6.20
2023-01-30T20:46:42.823Z,5.47
2023-01-30T20:49:13.372Z,5.30
2023-01-30T20:51:41.060Z,5.17
2023-01-30T20:54:11.416Z,5.60
2023-01-30T20:56:41.630Z,5.73
2023-01-30T20:59:10.341Z,5.13
2023-01-30T21:01:38.071Z,5.37
2023-01-30T21:04:07.267Z,5.30
2023-01-30T21:06:43.007Z,5.80
2023-01-30T21:09:16.069Z,5.27
2023-01-30T21:11:44.054Z,5.50
2023-01-30T21:14:12.124Z,5.60
2023-01-30T21:16:40.040Z,5.13
2023-01-30T21:19:11.249Z,5.10
2023-01-30T21:21:46.078Z,7.77
2023-01-30T21:24:17.285Z,4.97
2023-01-30T21:26:47.148Z,5.07
2023-01-30T21:29:15.800Z,5.00
2023-01-30T21:31:44.823Z,4.87
2023-01-30T21:34:13.156Z,6.10
2023-01-30T21:36:41.145Z,5.50
2023-01-30T21:39:28.275Z,4.63
2023-01-30T21:42:14.914Z,4.87
2023-01-30T21:44:42.637Z,6.40
2023-01-30T21:47:10.360Z,4.80
2023-01-30T21:49:38.065Z,5.17
2023-01-30T21:52:05.963Z,6.77
2023-01-30T21:54:33.630Z,4.47
2023-01-30T21:57:02.711Z,5.33
2023-01-30T21:59:31.451Z,5.47
2023-01-30T22:01:59.127Z,5.53
2023-01-30T22:04:26.854Z,5.30
2023-01-30T22:06:54.570Z,6.20
2023-01-30T22:09:22.248Z,5.37
2023-01-30T22:11:51.173Z,7.00
2023-01-30T22:14:20.262Z,6.30
2023-01-30T22:16:48.016Z,6.27
2023-01-30T22:19:15.781Z,6.10
2023-01-30T22:21:43.492Z,4.70
2023-01-30T22:24:11.795Z,4.60
2023-01-30T22:26:39.829Z,4.87
2023-01-30T22:29:07.748Z,4.80
2023-01-30T22:31:40.562Z,4.70
2023-01-30T22:34:08.930Z,5.00
2023-01-30T22:36:37.543Z,5.67
2023-01-30T22:39:05.891Z,4.80
2023-01-30T22:41:36.227Z,5.27
2023-01-30T22:44:05.684Z,5.60
2023-01-30T22:46:34.730Z,6.23
2023-01-30T22:49:05.680Z,5.30
2023-01-30T22:51:35.090Z,6.43
2023-01-30T22:54:04.706Z,4.63
2023-01-30T22:56:36.147Z,6.27
2023-01-30T22:59:03.827Z,5.03
2023-01-30T23:01:32.924Z,5.73
2023-01-30T23:04:01.984Z,5.17
2023-01-30T23:06:31.567Z,4.70
2023-01-30T23:09:00.271Z,6.70
2023-01-30T23:11:31.777Z,7.10
2023-01-30T23:14:05.822Z,4.47
2023-01-30T23:16:34.991Z,6.30
2023-01-30T23:19:04.445Z,5.00
2023-01-30T23:21:36.075Z,7.33
2023-01-30T23:24:05.950Z,5.73
2023-01-30T23:26:35.641Z,6.03
2023-01-30T23:29:04.700Z,5.73
2023-01-30T23:31:32.412Z,5.50
2023-01-30T23:34:01.941Z,6.17
2023-01-30T23:36:29.746Z,7.73
2023-01-30T23:39:00.244Z,6.33
2023-01-30T23:41:29.699Z,5.47
2023-01-30T23:43:58.632Z,5.73
2023-01-30T23:46:27.664Z,6.13
2023-01-30T23:48:56.655Z,5.17
2023-01-30T23:51:25.907Z,5.43
2023-01-30T23:53:53.901Z,7.90
2023-01-30T23:56:24.581Z,5.87
2023-01-30T23:58:52.557Z,5.10
